createdAt,value
2018-12-14T00:01:55.343Z,23.49
2018-12-14T00:04:22.038Z,23.42
2018-12-14T00:06:48.729Z,23.44
2018-12-14T00:09:15.429Z,23.42
2018-12-14T00:11:45.497Z,23.46
2018-12-14T00:14:08.757Z,23.41
2018-12-14T00:16:35.458Z,23.43
2018-12-14T00:19:02.095Z,23.40
2018-12-14T00:21:28.751Z,23.43
2018-12-14T00:23:55.390Z,23.39
2018-12-14T00:26:22.281Z,23.43
2018-12-14T00:28:48.907Z,23.41
2018-12-14T00:31:15.546Z,23.41
2018-12-14T00:33:42.204Z,23.41
2018-12-14T00:36:08.853Z,23.40
2018-12-14T00:38:35.537Z,23.40
2018-12-14T00:41:02.186Z,23.41
2018-12-14T00:43:28.819Z,23.41
2018-12-14T00:45:55.465Z,23.39
2018-12-14T00:48:22.154Z,23.42
2018-12-14T00:50:48.799Z,23.42
2018-12-14T00:53:15.493Z,23.42
2018-12-14T00:55:42.134Z,23.39
2018-12-14T00:58:08.829Z,23.34
2018-12-14T01:00:35.523Z,23.16
2018-12-14T01:03:02.174Z,22.94
2018-12-14T01:05:28.835Z,22.78
2018-12-14T01:07:55.483Z,22.79
2018-12-14T01:10:22.122Z,23.02
2018-12-14T01:12:48.814Z,23.05
2018-12-14T01:15:15.506Z,23.13
2018-12-14T01:17:42.141Z,23.19
2018-12-14T01:20:08.876Z,23.21
2018-12-14T01:22:35.522Z,23.28
2018-12-14T01:25:02.175Z,23.30
2018-12-14T01:27:28.888Z,23.33
2018-12-14T01:29:55.535Z,23.38
2018-12-14T01:32:22.198Z,23.42
2018-12-14T01:34:48.889Z,23.37
2018-12-14T01:37:15.652Z,23.34
2018-12-14T01:39:42.299Z,23.27
2018-12-14T01:42:08.940Z,23.27
2018-12-14T01:44:35.634Z,23.28
2018-12-14T01:47:02.271Z,23.23
2018-12-14T01:49:28.913Z,23.27
2018-12-14T01:51:55.621Z,23.27
2018-12-14T01:54:22.253Z,23.31
2018-12-14T01:56:48.889Z,23.31
2018-12-14T01:59:15.545Z,23.34
2018-12-14T02:01:42.233Z,23.33
2018-12-14T02:04:08.871Z,23.35
2018-12-14T02:06:35.524Z,23.36
2018-12-14T02:09:02.175Z,23.35
2018-12-14T02:11:30.116Z,23.37
2018-12-14T02:13:55.469Z,23.39
2018-12-14T02:16:22.109Z,23.40
2018-12-14T02:18:48.799Z,23.41
2018-12-14T02:21:15.439Z,23.37
2018-12-14T02:23:42.123Z,23.39
2018-12-14T02:26:08.764Z,23.36
2018-12-14T02:28:35.396Z,23.35
2018-12-14T02:31:02.102Z,23.41
2018-12-14T02:33:28.747Z,23.36
2018-12-14T02:35:55.444Z,23.37
2018-12-14T02:38:22.081Z,23.38
2018-12-14T02:40:48.734Z,23.37
2018-12-14T02:43:15.380Z,23.41
2018-12-14T02:45:42.074Z,23.41
2018-12-14T02:48:08.728Z,23.39
2018-12-14T02:50:35.370Z,23.40
2018-12-14T02:53:02.073Z,23.38
2018-12-14T02:55:28.775Z,23.40
2018-12-14T02:57:55.459Z,23.41
2018-12-14T03:00:22.067Z,23.36
2018-12-14T03:02:48.725Z,23.41
2018-12-14T03:05:15.426Z,23.39
2018-12-14T03:07:42.065Z,23.41
2018-12-14T03:10:08.771Z,23.43
2018-12-14T03:12:35.417Z,23.40
2018-12-14T03:15:02.052Z,23.42
2018-12-14T03:17:28.753Z,23.42
2018-12-14T03:19:55.385Z,23.42
2018-12-14T03:22:22.033Z,23.41
2018-12-14T03:24:48.671Z,23.43
2018-12-14T03:27:15.395Z,23.38
2018-12-14T03:29:41.973Z,23.37
2018-12-14T03:32:08.679Z,23.35
2018-12-14T03:34:35.341Z,23.38
2018-12-14T03:37:01.954Z,23.41
2018-12-14T03:39:28.659Z,23.38
2018-12-14T03:41:55.356Z,23.36
2018-12-14T03:44:22.011Z,23.39
2018-12-14T03:46:48.709Z,23.34
2018-12-14T03:49:15.348Z,23.36
2018-12-14T03:51:41.989Z,23.38
2018-12-14T03:54:08.796Z,23.36
2018-12-14T03:56:35.437Z,23.37
2018-12-14T03:59:02.083Z,23.39
2018-12-14T04:01:28.786Z,23.38
2018-12-14T04:03:55.476Z,23.35
2018-12-14T04:06:22.124Z,23.33
2018-12-14T04:08:48.762Z,23.35
2018-12-14T04:11:15.459Z,23.30
2018-12-14T04:13:42.109Z,23.31
2018-12-14T04:16:08.860Z,23.31
2018-12-14T04:18:35.552Z,23.35
2018-12-14T04:21:02.197Z,23.31
2018-12-14T04:23:28.863Z,23.32
2018-12-14T04:25:55.574Z,23.34
2018-12-14T04:28:22.216Z,23.38
2018-12-14T04:30:51.022Z,23.34
2018-12-14T04:33:15.546Z,23.33
2018-12-14T04:35:42.210Z,23.33
2018-12-14T04:38:08.893Z,23.34
2018-12-14T04:40:35.584Z,23.33
2018-12-14T04:43:02.273Z,23.35
2018-12-14T04:45:28.923Z,23.35
2018-12-14T04:47:55.569Z,23.58
2018-12-14T04:50:22.290Z,23.53
2018-12-14T04:52:48.930Z,23.43
2018-12-14T04:55:15.563Z,23.39
2018-12-14T04:57:42.323Z,23.39
2018-12-14T05:00:08.973Z,23.36
2018-12-14T05:02:35.677Z,23.36
2018-12-14T05:05:02.394Z,23.37
2018-12-14T05:07:29.095Z,23.37
2018-12-14T05:09:55.734Z,23.38
2018-12-14T05:12:22.561Z,23.36
2018-12-14T05:14:49.215Z,23.35
2018-12-14T05:17:15.850Z,23.34
2018-12-14T05:19:42.510Z,23.30
2018-12-14T05:22:09.147Z,23.34
2018-12-14T05:24:35.838Z,23.34
2018-12-14T05:27:02.482Z,23.39
2018-12-14T05:29:29.126Z,23.38
2018-12-14T05:31:55.773Z,23.42
2018-12-14T05:34:22.457Z,23.34
2018-12-14T05:36:49.098Z,23.35
2018-12-14T05:39:15.734Z,23.47
2018-12-14T05:41:42.397Z,23.38
2018-12-14T05:44:09.106Z,23.37
2018-12-14T05:46:35.750Z,23.37
2018-12-14T05:49:02.450Z,23.51
2018-12-14T05:51:29.105Z,23.44
2018-12-14T05:53:55.758Z,23.39
2018-12-14T05:56:22.398Z,23.38
2018-12-14T05:58:49.106Z,23.34
2018-12-14T06:01:15.807Z,23.36
2018-12-14T06:03:42.447Z,23.37
2018-12-14T06:06:09.104Z,23.37
2018-12-14T06:08:35.749Z,23.38
2018-12-14T06:11:02.459Z,23.37
2018-12-14T06:13:29.167Z,23.36
2018-12-14T06:15:55.949Z,23.36
2018-12-14T06:18:22.592Z,23.35
2018-12-14T06:20:49.319Z,23.36
2018-12-14T06:23:16.165Z,23.37
2018-12-14T06:25:42.869Z,23.37
2018-12-14T06:28:09.533Z,23.33
2018-12-14T06:30:36.196Z,23.35
2018-12-14T06:33:02.893Z,23.34
2018-12-14T06:35:29.540Z,23.37
2018-12-14T06:37:56.200Z,23.38
2018-12-14T06:40:22.849Z,23.39
2018-12-14T06:42:49.494Z,23.37
2018-12-14T06:45:16.135Z,23.38
2018-12-14T06:47:42.848Z,23.32
2018-12-14T06:50:09.483Z,23.20
2018-12-14T06:52:36.129Z,23.20
2018-12-14T06:55:02.782Z,23.24
2018-12-14T06:57:29.488Z,23.35
2018-12-14T06:59:56.130Z,23.38
2018-12-14T07:02:22.805Z,23.30
2018-12-14T07:04:49.466Z,23.36
2018-12-14T07:07:16.242Z,23.41
2018-12-14T07:09:42.946Z,23.45
2018-12-14T07:12:09.724Z,23.39
2018-12-14T07:14:36.373Z,23.47
2018-12-14T07:17:03.003Z,23.53
2018-12-14T07:19:29.729Z,23.73
2018-12-14T07:21:56.372Z,23.60
2018-12-14T07:24:23.256Z,23.62
2018-12-14T07:26:49.908Z,23.55
2018-12-14T07:29:16.549Z,23.73
2018-12-14T07:31:43.240Z,23.59
2018-12-14T07:34:09.933Z,23.55
2018-12-14T07:36:36.613Z,23.50
2018-12-14T07:39:03.274Z,23.59
2018-12-14T07:41:30.010Z,23.50
2018-12-14T07:43:56.737Z,23.56
2018-12-14T07:46:23.394Z,23.57
2018-12-14T07:48:50.107Z,23.54
2018-12-14T07:51:16.750Z,23.47
2018-12-14T07:53:43.452Z,23.53
2018-12-14T07:56:10.105Z,23.52
2018-12-14T07:58:36.742Z,23.54
2018-12-14T08:01:03.502Z,23.50
2018-12-14T08:03:30.152Z,23.50
2018-12-14T08:05:56.948Z,23.50
2018-12-14T08:08:23.594Z,23.45
2018-12-14T08:10:50.286Z,23.42
2018-12-14T08:13:16.947Z,23.55
2018-12-14T08:15:43.653Z,23.54
2018-12-14T08:18:10.396Z,23.57
2018-12-14T08:20:37.047Z,23.58
2018-12-14T08:23:03.756Z,23.59
2018-12-14T08:25:30.397Z,23.50
2018-12-14T08:27:57.976Z,23.45
2018-12-14T08:30:24.674Z,23.50
2018-12-14T08:32:51.342Z,23.46
2018-12-14T08:35:17.991Z,23.51
2018-12-14T08:37:44.656Z,23.42
2018-12-14T08:40:11.354Z,23.64
2018-12-14T08:42:37.997Z,23.61
2018-12-14T08:45:04.661Z,23.61
2018-12-14T08:47:31.340Z,23.65
2018-12-14T08:49:58.004Z,23.68
2018-12-14T08:52:24.653Z,23.70
2018-12-14T08:54:51.313Z,23.76
2018-12-14T08:57:17.986Z,23.75
2018-12-14T08:59:44.646Z,23.77
2018-12-14T09:02:11.903Z,23.89
2018-12-14T09:04:38.554Z,23.70
2018-12-14T09:07:05.297Z,23.43
2018-12-14T09:09:31.937Z,23.28
2018-12-14T09:11:58.670Z,23.14
2018-12-14T09:14:25.365Z,23.07
2018-12-14T09:16:52.131Z,23.20
2018-12-14T09:19:18.816Z,23.23
2018-12-14T09:21:45.481Z,23.39
2018-12-14T09:24:12.122Z,23.60
2018-12-14T09:26:38.956Z,23.64
2018-12-14T09:29:05.649Z,23.69
2018-12-14T09:31:32.346Z,23.71
2018-12-14T09:33:58.989Z,23.70
2018-12-14T09:36:25.676Z,23.67
2018-12-14T09:38:53.514Z,23.66
2018-12-14T09:41:20.217Z,23.66
2018-12-14T09:43:47.006Z,23.64
2018-12-14T09:46:13.765Z,23.64
2018-12-14T09:48:40.390Z,23.66
2018-12-14T09:51:12.376Z,23.64
2018-12-14T09:53:33.729Z,23.61
2018-12-14T09:56:00.382Z,23.61
2018-12-14T09:58:27.038Z,23.59
2018-12-14T10:00:53.688Z,23.65
2018-12-14T10:03:20.324Z,23.64
2018-12-14T10:05:48.067Z,23.69
2018-12-14T10:08:14.726Z,23.66
2018-12-14T10:10:41.452Z,23.78
2018-12-14T10:13:08.186Z,23.77
2018-12-14T10:15:34.917Z,23.67
2018-12-14T10:18:01.562Z,23.68
2018-12-14T10:20:28.213Z,23.61
2018-12-14T10:22:54.934Z,23.68
2018-12-14T10:25:21.578Z,23.65
2018-12-14T10:27:48.239Z,23.74
2018-12-14T10:30:16.208Z,23.69
2018-12-14T10:32:41.534Z,23.75
2018-12-14T10:35:08.176Z,23.72
2018-12-14T10:37:34.869Z,23.85
2018-12-14T10:40:01.514Z,23.81
2018-12-14T10:42:28.208Z,23.77
2018-12-14T10:44:54.858Z,23.73
2018-12-14T10:47:21.567Z,23.84
2018-12-14T10:49:48.216Z,23.76
2018-12-14T10:52:14.861Z,23.80
2018-12-14T10:54:41.525Z,23.80
2018-12-14T10:57:08.259Z,23.70
2018-12-14T10:59:34.906Z,23.69
2018-12-14T11:02:01.576Z,23.67
2018-12-14T11:04:28.245Z,23.64
2018-12-14T11:06:54.897Z,23.66
2018-12-14T11:09:21.602Z,23.62
2018-12-14T11:11:48.312Z,23.71
2018-12-14T11:14:15.009Z,23.71
2018-12-14T11:16:41.716Z,23.72
2018-12-14T11:19:08.396Z,23.67
2018-12-14T11:21:35.158Z,23.71
2018-12-14T11:24:01.806Z,23.80
2018-12-14T11:26:28.470Z,23.66
2018-12-14T11:28:55.123Z,23.70
2018-12-14T11:31:21.818Z,23.69
2018-12-14T11:33:48.462Z,23.75
2018-12-14T11:36:15.110Z,23.75
2018-12-14T11:38:44.350Z,23.81
2018-12-14T11:41:10.996Z,23.76
2018-12-14T11:43:37.638Z,23.68
2018-12-14T11:46:04.310Z,23.69
2018-12-14T11:48:30.956Z,23.69
2018-12-14T11:50:57.610Z,23.72
2018-12-14T11:53:27.122Z,23.73
2018-12-14T11:55:53.939Z,23.75
2018-12-14T11:58:20.631Z,23.84
2018-12-14T12:00:47.413Z,23.75
2018-12-14T12:03:14.069Z,24.00
2018-12-14T12:05:40.705Z,24.09
2018-12-14T12:08:07.399Z,24.01
2018-12-14T12:10:34.055Z,23.95
2018-12-14T12:13:00.756Z,23.90
2018-12-14T12:15:27.400Z,23.88
2018-12-14T12:17:54.122Z,24.02
2018-12-14T12:20:20.758Z,24.04
2018-12-14T12:22:48.498Z,23.94
2018-12-14T12:25:15.327Z,23.96
2018-12-14T12:27:42.627Z,23.95
2018-12-14T12:30:09.378Z,23.96
2018-12-14T12:32:36.027Z,24.11
2018-12-14T12:35:02.688Z,24.10
2018-12-14T12:37:29.536Z,24.14
2018-12-14T12:39:56.177Z,24.00
2018-12-14T12:42:22.823Z,24.24
2018-12-14T12:44:49.536Z,24.04
2018-12-14T12:47:16.201Z,24.01
2018-12-14T12:49:42.886Z,24.01
2018-12-14T12:52:09.586Z,23.96
2018-12-14T12:54:36.227Z,24.01
2018-12-14T12:57:02.872Z,24.09
2018-12-14T12:59:29.536Z,24.18
2018-12-14T13:01:56.187Z,24.17
2018-12-14T13:04:22.894Z,24.06
2018-12-14T13:06:49.589Z,24.00
2018-12-14T13:09:16.271Z,23.95
2018-12-14T13:11:43.075Z,23.92
2018-12-14T13:14:09.739Z,23.90
2018-12-14T13:16:36.442Z,23.90
2018-12-14T13:19:03.088Z,23.96
2018-12-14T13:21:29.799Z,23.86
2018-12-14T13:23:56.417Z,23.94
2018-12-14T13:26:23.125Z,23.99
2018-12-14T13:28:49.816Z,23.98
2018-12-14T13:31:16.467Z,24.07
2018-12-14T13:33:43.113Z,23.92
2018-12-14T13:36:09.830Z,23.88
2018-12-14T13:38:36.524Z,23.83
2018-12-14T13:41:03.219Z,23.97
2018-12-14T13:43:29.893Z,23.90
2018-12-14T13:45:56.549Z,23.93
2018-12-14T13:48:23.202Z,23.84
2018-12-14T13:50:49.926Z,23.87
2018-12-14T13:53:16.590Z,23.86
2018-12-14T13:55:44.307Z,23.98
2018-12-14T13:58:10.979Z,23.99
2018-12-14T14:00:37.625Z,23.93
2018-12-14T14:03:04.335Z,23.90
2018-12-14T14:05:30.972Z,24.13
2018-12-14T14:07:57.618Z,23.94
2018-12-14T14:10:24.282Z,23.94
2018-12-14T14:12:51.054Z,24.00
2018-12-14T14:15:20.883Z,24.08
2018-12-14T14:17:44.450Z,23.95
2018-12-14T14:20:12.453Z,24.05
2018-12-14T14:22:37.759Z,23.88
2018-12-14T14:25:05.485Z,23.84
2018-12-14T14:27:32.187Z,23.82
2018-12-14T14:30:00.940Z,23.86
2018-12-14T14:32:27.605Z,23.93
2018-12-14T14:34:54.252Z,23.86
2018-12-14T14:37:20.905Z,23.87
2018-12-14T14:39:47.547Z,23.93
2018-12-14T14:42:14.298Z,23.98
2018-12-14T14:44:40.963Z,23.82
2018-12-14T14:47:07.657Z,23.95
2018-12-14T14:49:34.296Z,23.98
2018-12-14T14:52:00.933Z,23.93
2018-12-14T14:54:27.579Z,23.91
2018-12-14T14:56:54.240Z,23.88
2018-12-14T14:59:20.914Z,23.84
2018-12-14T15:01:47.585Z,23.87
2018-12-14T15:04:14.245Z,24.00
2018-12-14T15:06:40.888Z,23.85
2018-12-14T15:09:07.609Z,23.83
2018-12-14T15:11:34.292Z,23.82
2018-12-14T15:14:00.963Z,23.86
2018-12-14T15:16:27.659Z,23.86
2018-12-14T15:18:54.374Z,23.82
2018-12-14T15:21:21.016Z,23.81
2018-12-14T15:23:49.818Z,23.82
2018-12-14T15:26:16.464Z,23.80
2018-12-14T15:28:43.120Z,23.85
2018-12-14T15:31:09.774Z,23.80
2018-12-14T15:33:36.475Z,23.91
2018-12-14T15:36:03.134Z,23.93
2018-12-14T15:38:29.799Z,23.95
2018-12-14T15:40:56.449Z,23.88
2018-12-14T15:43:23.107Z,24.13
2018-12-14T15:45:49.758Z,24.12
2018-12-14T15:48:16.413Z,24.02
2018-12-14T15:50:43.059Z,23.94
2018-12-14T15:53:09.742Z,23.95
2018-12-14T15:55:36.378Z,24.11
2018-12-14T15:58:03.028Z,24.10
2018-12-14T16:00:29.702Z,24.16
2018-12-14T16:02:56.403Z,24.07
2018-12-14T16:05:23.044Z,23.90
2018-12-14T16:07:49.689Z,23.86
2018-12-14T16:10:16.383Z,23.95
2018-12-14T16:12:43.087Z,23.93
2018-12-14T16:15:09.759Z,23.90
2018-12-14T16:17:36.402Z,24.13
2018-12-14T16:20:03.321Z,23.95
2018-12-14T16:22:30.534Z,23.87
2018-12-14T16:24:57.258Z,23.86
2018-12-14T16:27:23.949Z,24.07
2018-12-14T16:29:50.643Z,23.99
2018-12-14T16:32:17.751Z,24.12
2018-12-14T16:34:44.464Z,23.87
2018-12-14T16:37:11.109Z,23.86
2018-12-14T16:39:37.746Z,23.81
2018-12-14T16:42:04.402Z,23.82
2018-12-14T16:44:31.041Z,23.83
2018-12-14T16:46:57.702Z,23.84
2018-12-14T16:49:24.346Z,23.89
2018-12-14T16:51:50.993Z,23.89
2018-12-14T16:54:19.114Z,23.90
2018-12-14T16:56:44.406Z,23.90
2018-12-14T16:59:11.116Z,23.80
2018-12-14T17:01:37.757Z,23.77
2018-12-14T17:04:04.392Z,23.83
2018-12-14T17:06:31.054Z,23.80
2018-12-14T17:08:57.705Z,23.62
2018-12-14T17:11:24.413Z,23.25
2018-12-14T17:13:51.052Z,23.19
2018-12-14T17:16:17.754Z,23.12
2018-12-14T17:18:44.623Z,23.42
2018-12-14T17:21:11.274Z,23.61
2018-12-14T17:23:37.917Z,23.57
2018-12-14T17:26:04.593Z,23.61
2018-12-14T17:28:31.241Z,23.64
2018-12-14T17:30:57.935Z,23.68
2018-12-14T17:33:24.563Z,23.71
2018-12-14T17:35:51.205Z,23.71
2018-12-14T17:38:17.868Z,23.76
2018-12-14T17:40:44.571Z,23.76
2018-12-14T17:43:11.222Z,23.75
2018-12-14T17:45:39.863Z,23.73
2018-12-14T17:48:04.509Z,23.72
2018-12-14T17:50:31.209Z,23.82
2018-12-14T17:52:57.861Z,23.81
2018-12-14T17:55:25.610Z,23.77
2018-12-14T17:57:51.222Z,23.70
2018-12-14T18:00:17.861Z,23.71
2018-12-14T18:02:44.552Z,23.70
2018-12-14T18:05:11.207Z,23.71
2018-12-14T18:07:37.849Z,23.66
2018-12-14T18:10:04.518Z,23.64
2018-12-14T18:12:31.256Z,23.70
2018-12-14T18:14:57.948Z,23.66
2018-12-14T18:17:24.595Z,23.62
2018-12-14T18:19:51.295Z,23.58
2018-12-14T18:22:17.940Z,23.53
2018-12-14T18:24:44.604Z,23.54
2018-12-14T18:27:11.329Z,23.51
2018-12-14T18:29:37.970Z,23.48
2018-12-14T18:32:04.680Z,23.48
2018-12-14T18:34:31.313Z,23.54
2018-12-14T18:36:58.056Z,23.51
2018-12-14T18:39:24.698Z,23.53
2018-12-14T18:41:51.406Z,23.47
2018-12-14T18:44:18.107Z,23.49
2018-12-14T18:46:44.759Z,23.44
2018-12-14T18:49:11.415Z,23.44
2018-12-14T18:51:39.145Z,23.46
2018-12-14T18:54:05.783Z,23.45
2018-12-14T18:56:32.495Z,23.48
2018-12-14T18:58:59.200Z,23.43
2018-12-14T19:01:27.270Z,23.44
2018-12-14T19:03:52.547Z,23.46
2018-12-14T19:06:19.238Z,23.47
2018-12-14T19:08:45.879Z,23.45
2018-12-14T19:11:12.585Z,23.45
2018-12-14T19:13:39.230Z,23.44
2018-12-14T19:16:05.874Z,23.44
2018-12-14T19:18:32.630Z,23.43
2018-12-14T19:20:59.278Z,23.42
2018-12-14T19:23:25.935Z,23.41
2018-12-14T19:25:52.591Z,23.45
2018-12-14T19:28:19.253Z,23.41
2018-12-14T19:30:45.901Z,23.41
2018-12-14T19:33:12.597Z,23.42
2018-12-14T19:35:39.250Z,23.45
2018-12-14T19:38:05.892Z,23.42
2018-12-14T19:40:32.585Z,23.41
2018-12-14T19:42:59.260Z,23.40
2018-12-14T19:45:25.932Z,23.37
2018-12-14T19:47:52.579Z,23.38
2018-12-14T19:50:19.219Z,23.44
2018-12-14T19:52:45.904Z,23.39
2018-12-14T19:55:12.569Z,23.44
2018-12-14T19:57:39.225Z,23.40
2018-12-14T20:00:05.872Z,23.44
2018-12-14T20:02:32.540Z,23.37
2018-12-14T20:04:59.194Z,23.42
2018-12-14T20:07:25.905Z,23.36
2018-12-14T20:09:52.550Z,23.41
2018-12-14T20:12:19.192Z,23.37
2018-12-14T20:14:45.845Z,23.42
2018-12-14T20:17:12.499Z,23.40
2018-12-14T20:19:39.153Z,23.38
2018-12-14T20:22:05.792Z,23.36
2018-12-14T20:24:32.501Z,23.39
2018-12-14T20:26:59.134Z,23.37
2018-12-14T20:29:25.843Z,23.38
2018-12-14T20:31:52.489Z,23.32
2018-12-14T20:34:21.815Z,23.39
2018-12-14T20:36:48.485Z,23.38
2018-12-14T20:39:15.126Z,23.39
2018-12-14T20:41:41.828Z,23.35
2018-12-14T20:44:08.475Z,23.36
2018-12-14T20:46:35.189Z,23.35
2018-12-14T20:49:01.841Z,23.39
2018-12-14T20:51:28.484Z,23.35
2018-12-14T20:53:55.180Z,23.37
2018-12-14T20:56:21.832Z,23.35
2018-12-14T20:58:48.482Z,23.36
2018-12-14T21:01:15.140Z,23.36
2018-12-14T21:03:41.833Z,23.35
2018-12-14T21:06:08.487Z,23.36
2018-12-14T21:08:35.187Z,23.36
2018-12-14T21:11:01.848Z,23.37
2018-12-14T21:13:28.508Z,23.37
2018-12-14T21:15:55.150Z,23.33
2018-12-14T21:18:21.853Z,23.34
2018-12-14T21:20:48.551Z,23.33
2018-12-14T21:23:15.198Z,23.32
2018-12-14T21:25:41.883Z,23.33
2018-12-14T21:28:08.576Z,23.31
2018-12-14T21:30:35.249Z,23.34
2018-12-14T21:33:01.939Z,23.31
2018-12-14T21:35:28.629Z,23.29
2018-12-14T21:37:55.323Z,23.30
2018-12-14T21:40:21.964Z,23.34
2018-12-14T21:42:48.668Z,23.31
2018-12-14T21:45:15.309Z,23.30
2018-12-14T21:47:42.030Z,23.31
2018-12-14T21:50:08.669Z,23.31
2018-12-14T21:52:35.304Z,23.31
2018-12-14T21:55:01.967Z,23.30
2018-12-14T21:57:28.652Z,23.28
2018-12-14T21:59:55.305Z,23.29
2018-12-14T22:02:21.959Z,23.30
2018-12-14T22:04:48.641Z,23.32
2018-12-14T22:07:15.281Z,23.27
2018-12-14T22:09:41.978Z,23.32
2018-12-14T22:12:08.645Z,23.26
2018-12-14T22:14:35.284Z,23.33
2018-12-14T22:17:01.942Z,23.28
2018-12-14T22:19:28.579Z,23.28
2018-12-14T22:21:55.284Z,23.30
2018-12-14T22:24:21.931Z,23.31
2018-12-14T22:26:48.625Z,23.26
2018-12-14T22:29:15.270Z,23.31
2018-12-14T22:31:42.140Z,23.28
2018-12-14T22:34:08.789Z,23.30
2018-12-14T22:36:35.487Z,23.26
2018-12-14T22:39:02.137Z,23.29
2018-12-14T22:41:28.830Z,23.27
2018-12-14T22:43:55.532Z,23.29
2018-12-14T22:46:22.229Z,23.27
2018-12-14T22:48:48.865Z,23.30
2018-12-14T22:51:15.502Z,23.28
2018-12-14T22:53:42.161Z,23.28
2018-12-14T22:56:08.799Z,23.22
2018-12-14T22:58:35.485Z,23.26
2018-12-14T23:01:02.126Z,23.33
2018-12-14T23:03:28.819Z,23.29
2018-12-14T23:05:55.460Z,23.31
2018-12-14T23:08:22.160Z,23.30
2018-12-14T23:10:48.861Z,23.28
2018-12-14T23:13:15.557Z,23.28
2018-12-14T23:15:42.288Z,23.31
2018-12-14T23:18:08.935Z,23.26
2018-12-14T23:20:35.586Z,23.28
2018-12-14T23:23:02.230Z,23.29
2018-12-14T23:25:28.949Z,23.31
2018-12-14T23:27:55.637Z,23.30
2018-12-14T23:30:23.634Z,23.30
2018-12-14T23:32:49.006Z,23.27
2018-12-14T23:35:15.649Z,23.28
2018-12-14T23:37:42.342Z,23.27
2018-12-14T23:40:09.042Z,23.29
2018-12-14T23:42:35.692Z,23.27
2018-12-14T23:45:02.331Z,23.28
2018-12-14T23:47:28.993Z,23.25
2018-12-14T23:49:55.681Z,23.28
2018-12-14T23:52:22.328Z,23.27
2018-12-14T23:54:49.005Z,23.30
2018-12-14T23:57:15.696Z,23.26
2018-12-14T23:59:42.386Z,23.29
